Time;durP1;ratioP1;P1;durP2;ratioP2;P2;SDS_P1;SDS_P2;PMS_P1;PMS_P2;Temp;Humidity;BMP_temperature;BMP_pressure;BME280_temperature;BME280_humidity;BME280_pressure;Samples;Min_cycle;Max_cycle;Signal;HPM_P1;HPM_P2
2023/11/16 00:02:16;;;;;;;3.17;1.90;;;;;;;9.62;100.00;101544.75;10369996;28;20120;-70
2023/11/16 00:07:17;;;;;;;5.00;2.35;;;;;;;9.77;100.00;101551.13;10372637;28;20454;-70
2023/11/16 00:12:18;;;;;;;6.28;2.67;;;;;;;9.81;100.00;101541.63;10370655;28;20076;-70
2023/11/16 00:17:18;;;;;;;27.35;4.07;;;;;;;9.86;100.00;101541.06;10369955;28;20041;-71
2023/11/16 00:22:19;;;;;;;3.78;2.22;;;;;;;9.85;100.00;101542.94;10370244;28;20145;-71
2023/11/16 00:27:19;;;;;;;6.40;2.65;;;;;;;9.93;100.00;101532.09;10368394;28;20128;-70
2023/11/16 00:32:20;;;;;;;6.50;2.80;;;;;;;10.01;100.00;101539.31;10370252;28;20038;-71
2023/11/16 00:37:20;;;;;;;4.45;2.53;;;;;;;10.04;100.00;101548.94;10369142;28;20054;-71
2023/11/16 00:42:23;;;;;;;9.13;3.88;;;;;;;10.05;100.00;101547.91;10369143;28;20123;-71
2023/11/16 00:47:24;;;;;;;18.08;4.18;;;;;;;10.09;100.00;101546.56;10372223;28;20049;-71
2023/11/16 00:52:24;;;;;;;7.47;2.30;;;;;;;10.13;100.00;101556.81;10353002;28;20038;-71
2023/11/16 00:57:25;;;;;;;9.05;3.65;;;;;;;10.11;100.00;101550.75;10367658;28;20443;-71
2023/11/16 01:02:26;;;;;;;5.53;2.92;;;;;;;10.19;100.00;101556.13;10352840;28;20132;-70
2023/11/16 01:07:27;;;;;;;14.35;3.35;;;;;;;10.13;100.00;101558.69;10360683;28;20468;-70
2023/11/16 01:12:28;;;;;;;4.38;2.28;;;;;;;9.92;100.00;101549.34;10377666;28;20076;-71
2023/11/16 01:17:32;;;;;;;2.38;2.17;;;;;;;9.76;100.00;101558.41;10362683;28;20488;-72
2023/11/16 01:22:40;;;;;;;13.82;1.98;;;;;;;9.70;100.00;101558.22;10380900;28;20053;-73
2023/11/16 01:27:43;;;;;;;10.57;2.17;;;;;;;9.58;100.00;101549.69;10379272;28;20042;-73
2023/11/16 01:32:44;;;;;;;0.60;0.60;;;;;;;9.57;100.00;101555.25;10392829;28;20063;-73
2023/11/16 01:37:45;;;;;;;0.30;0.30;;;;;;;9.51;100.00;101554.94;10378152;28;20038;-72
2023/11/16 01:42:46;;;;;;;0.40;0.40;;;;;;;9.47;100.00;101547.34;10377574;28;20049;-74
2023/11/16 01:47:46;;;;;;;0.43;0.43;;;;;;;9.43;100.00;101554.13;10375209;28;20050;-72
2023/11/16 01:52:47;;;;;;;0.40;0.40;;;;;;;9.41;100.00;101551.59;10359746;28;20213;-72
2023/11/16 01:57:47;;;;;;;0.55;0.55;;;;;;;9.38;100.00;101551.94;10375740;28;20046;-72
2023/11/16 02:02:49;;;;;;;0.47;0.47;;;;;;;9.35;100.00;101557.69;10358830;28;20037;-72
2023/11/16 02:07:49;;;;;;;0.30;0.30;;;;;;;9.34;100.00;101560.56;10343415;28;20180;-72
2023/11/16 02:12:53;;;;;;;0.50;0.50;;;;;;;9.34;100.00;101574.06;10358256;28;20041;-72
2023/11/16 02:17:54;;;;;;;0.45;0.45;;;;;;;9.32;100.00;101572.41;10374374;28;20481;-72
2023/11/16 02:22:55;;;;;;;0.40;0.40;;;;;;;9.36;100.00;101551.25;10357326;28;20026;-72
2023/11/16 02:27:55;;;;;;;0.40;0.40;;;;;;;9.38;100.00;101548.38;10375279;28;20173;-73
2023/11/16 02:32:55;;;;;;;2.00;1.95;;;;;;;9.39;100.00;101548.22;10374408;28;20343;-73
2023/11/16 02:37:56;;;;;;;0.40;0.40;;;;;;;9.40;100.00;101546.34;10373899;28;20104;-72
2023/11/16 02:42:56;;;;;;;1.20;1.20;;;;;;;9.41;100.00;101548.91;10375139;28;20030;-72
2023/11/16 02:47:57;;;;;;;0.43;0.43;;;;;;;9.44;100.00;101542.28;10373857;28;20053;-71
2023/11/16 02:52:57;;;;;;;0.65;0.65;;;;;;;9.44;100.00;101542.28;10372574;28;20076;-71
2023/11/16 02:57:58;;;;;;;1.25;1.25;;;;;;;9.44;100.00;101553.94;10389064;28;20145;-71
2023/11/16 03:02:58;;;;;;;0.40;0.40;;;;;;;9.47;100.00;101558.16;10374270;28;20037;-71
2023/11/16 03:07:59;;;;;;;1.02;1.02;;;;;;;9.47;100.00;101559.00;10373469;28;20049;-71
2023/11/16 03:13:00;;;;;;;1.50;1.40;;;;;;;9.50;100.00;101552.41;10356281;28;20539;-71
2023/11/16 03:18:00;;;;;;;0.40;0.40;;;;;;;9.49;100.00;101545.31;10356205;28;20065;-71
2023/11/16 03:23:01;;;;;;;0.47;0.47;;;;;;;9.45;100.00;101539.41;10371876;28;20117;-71
2023/11/16 03:28:03;;;;;;;0.40;0.40;;;;;;;9.43;100.00;101529.78;10372326;28;20133;-71
2023/11/16 03:33:04;;;;;;;0.35;0.35;;;;;;;9.36;100.00;101520.69;10371674;28;20038;-72
2023/11/16 03:38:05;;;;;;;0.40;0.40;;;;;;;9.33;100.00;101519.19;10371946;28;20061;-71
2023/11/16 03:43:05;;;;;;;0.43;0.43;;;;;;;9.35;100.00;101521.69;10387233;28;20096;-72
2023/11/16 03:48:05;;;;;;;0.45;0.45;;;;;;;9.38;100.00;101519.50;10372144;28;20045;-72
2023/11/16 03:53:06;;;;;;;0.40;0.40;;;;;;;9.39;100.00;101518.47;10372028;28;20033;-72
2023/11/16 03:58:07;;;;;;;0.38;0.38;;;;;;;9.37;100.00;101514.25;10373385;28;20054;-71
2023/11/16 04:03:08;;;;;;;0.30;0.30;;;;;;;9.35;100.00;101513.59;10355756;28;20346;-72
2023/11/16 04:08:08;;;;;;;0.40;0.40;;;;;;;9.31;100.00;101507.69;10354426;28;20048;-72
2023/11/16 04:13:11;;;;;;;0.40;0.40;;;;;;;9.25;100.00;101511.09;10354569;28;20036;-71
2023/11/16 04:18:11;;;;;;;0.77;0.77;;;;;;;9.20;100.00;101514.31;10372055;28;20037;-71
2023/11/16 04:23:12;;;;;;;0.30;0.30;;;;;;;9.15;100.00;101499.63;10370097;28;20049;-72
2023/11/16 04:28:13;;;;;;;0.28;0.28;;;;;;;9.06;100.00;101486.16;10372282;28;20092;-72
2023/11/16 04:33:13;;;;;;;4.13;3.80;;;;;;;9.01;100.00;101501.19;10370098;28;20063;-71
2023/11/16 04:38:14;;;;;;;0.40;0.40;;;;;;;9.01;100.00;101504.75;10372886;28;20030;-71
2023/11/16 04:43:16;;;;;;;0.40;0.40;;;;;;;9.03;100.00;101494.63;10383233;28;20474;-72
2023/11/16 04:48:18;;;;;;;0.40;0.40;;;;;;;9.00;100.00;101481.47;10384487;28;20034;-72
2023/11/16 04:53:19;;;;;;;0.40;0.40;;;;;;;8.95;100.00;101478.41;10383017;28;20054;-72
2023/11/16 04:58:20;;;;;;;0.50;0.50;;;;;;;8.98;100.00;101488.03;10382962;28;20038;-72
2023/11/16 05:03:21;;;;;;;0.47;0.47;;;;;;;8.95;100.00;101478.41;10383618;28;20163;-72
2023/11/16 05:08:24;;;;;;;0.77;0.77;;;;;;;9.00;100.00;101499.53;10384613;28;20058;-72
2023/11/16 05:13:24;;;;;;;0.50;0.50;;;;;;;9.05;100.00;101495.28;10383322;28;20036;-71
2023/11/16 05:18:25;;;;;;;0.50;0.50;;;;;;;9.09;100.00;101493.06;10365232;28;20496;-71
2023/11/16 05:23:25;;;;;;;0.40;0.40;;;;;;;9.05;100.00;101487.16;10383521;28;20386;-72
2023/11/16 05:28:26;;;;;;;0.85;0.85;;;;;;;9.02;100.00;101479.41;10365219;28;20034;-71
2023/11/16 05:33:27;;;;;;;0.50;0.50;;;;;;;9.01;100.00;101480.44;10365932;28;20042;-72
2023/11/16 05:38:28;;;;;;;0.50;0.50;;;;;;;9.04;100.00;101488.19;10382869;28;20370;-72
2023/11/16 05:43:28;;;;;;;0.40;0.40;;;;;;;9.04;100.00;101473.84;10365780;28;20034;-71
2023/11/16 05:48:28;;;;;;;0.40;0.40;;;;;;;8.99;100.00;101474.34;10384372;28;20096;-72
2023/11/16 05:53:29;;;;;;;0.50;0.50;;;;;;;8.98;100.00;101459.16;10377139;28;20069;-72
2023/11/16 05:58:29;;;;;;;0.40;0.40;;;;;;;9.01;100.00;101450.72;10375174;28;20133;-71
2023/11/16 06:03:31;;;;;;;1.17;1.17;;;;;;;9.00;100.00;101448.19;10374997;28;20046;-71
2023/11/16 06:08:33;;;;;;;0.40;0.40;;;;;;;8.94;100.00;101430.81;10358314;28;20077;-71
2023/11/16 06:13:35;;;;;;;0.60;0.60;;;;;;;8.89;100.00;101435.88;10357933;28;20042;-71
2023/11/16 06:18:35;;;;;;;0.60;0.60;;;;;;;8.86;100.00;101428.13;10374500;28;20084;-71
2023/11/16 06:23:36;;;;;;;0.40;0.40;;;;;;;8.85;100.00;101421.06;10373963;28;20499;-71
2023/11/16 06:28:37;;;;;;;0.40;0.40;;;;;;;8.85;100.00;101412.94;10376125;28;20084;-72
2023/11/16 06:33:37;;;;;;;0.40;0.40;;;;;;;8.89;100.00;101411.59;10358494;28;20157;-71
2023/11/16 06:38:38;;;;;;;0.52;0.52;;;;;;;8.92;100.00;101402.28;10373270;28;20108;-71
2023/11/16 06:43:39;;;;;;;0.50;0.50;;;;;;;8.88;100.00;101401.81;10373484;28;20125;-71
2023/11/16 06:48:40;;;;;;;0.40;0.40;;;;;;;8.89;100.00;101400.78;10357825;28;20101;-71
2023/11/16 06:53:42;;;;;;;0.70;0.70;;;;;;;8.88;100.00;101399.09;10373878;28;20117;-71
2023/11/16 06:58:43;;;;;;;0.50;0.50;;;;;;;8.87;100.00;101399.25;10374746;28;20040;-72
2023/11/16 07:03:46;;;;;;;0.50;0.50;;;;;;;8.89;100.00;101397.25;10373561;28;20101;-71
2023/11/16 07:08:47;;;;;;;1.52;1.48;;;;;;;8.93;100.00;101390.47;10356765;28;20053;-71
2023/11/16 07:13:47;;;;;;;0.40;0.40;;;;;;;8.95;100.00;101389.28;10373214;28;20061;-71
2023/11/16 07:18:48;;;;;;;0.70;0.70;;;;;;;9.00;100.00;101381.50;10372425;28;20038;-72
2023/11/16 07:23:48;;;;;;;0.70;0.70;;;;;;;8.93;100.00;101379.66;10372982;28;20485;-71
2023/11/16 07:28:48;;;;;;;0.50;0.50;;;;;;;8.88;100.00;101374.78;10373061;28;20397;-71
2023/11/16 07:33:52;;;;;;;0.50;0.50;;;;;;;8.94;100.00;101376.81;10372605;28;20050;-71
2023/11/16 07:38:53;;;;;;;1.10;1.10;;;;;;;8.95;100.00;101370.38;10371701;28;20098;-72
2023/11/16 07:43:54;;;;;;;1.13;1.13;;;;;;;8.96;100.00;101385.56;10371270;28;20050;-71
2023/11/16 07:48:54;;;;;;;0.93;0.93;;;;;;;8.99;100.00;101377.09;10355103;28;20025;-71
2023/11/16 07:53:57;;;;;;;3.83;2.92;;;;;;;8.94;100.00;101368.69;10355096;28;20516;-71
2023/11/16 07:58:59;;;;;;;0.40;0.40;;;;;;;8.95;100.00;101358.72;10371554;28;20124;-72
2023/11/16 08:04:00;;;;;;;0.55;0.55;;;;;;;8.94;100.00;101357.91;10353899;28;20473;-72
2023/11/16 08:09:00;;;;;;;0.50;0.50;;;;;;;8.93;100.00;101339.16;10370737;28;20152;-72
2023/11/16 08:14:01;;;;;;;0.77;0.77;;;;;;;8.91;100.00;101323.13;10353028;28;20530;-71
2023/11/16 08:19:02;;;;;;;13.77;2.72;;;;;;;8.94;100.00;101319.25;10354108;28;20025;-72
2023/11/16 08:24:02;;;;;;;4.72;3.72;;;;;;;9.02;100.00;101328.13;10369910;28;20033;-72
2023/11/16 08:29:03;;;;;;;1.02;1.02;;;;;;;9.11;100.00;101325.41;10372200;28;20030;-71
2023/11/16 08:34:04;;;;;;;0.40;0.40;;;;;;;9.15;100.00;101322.16;10369486;28;20061;-72
2023/11/16 08:39:08;;;;;;;0.82;0.82;;;;;;;9.20;100.00;101327.03;10370927;28;20139;-71
2023/11/16 08:44:09;;;;;;;0.70;0.70;;;;;;;9.20;100.00;101321.63;10368681;28;20121;-72
2023/11/16 08:49:10;;;;;;;1.20;1.13;;;;;;;9.21;100.00;101315.19;10352858;28;20113;-71
2023/11/16 08:54:11;;;;;;;2.05;1.85;;;;;;;9.22;100.00;101319.56;10369661;28;20135;-72
2023/11/16 08:59:12;;;;;;;0.50;0.50;;;;;;;9.24;100.00;101317.53;10369625;28;20076;-71
2023/11/16 09:04:13;;;;;;;0.77;0.77;;;;;;;9.17;100.00;101322.81;10385795;28;20141;-71
2023/11/16 09:14:34;;;;;;;0.50;0.50;;;;;;;9.10;100.00;101318.31;10370008;28;20042;-71
2023/11/16 09:19:37;;;;;;;0.90;0.90;;;;;;;9.10;100.00;101329.97;10370449;28;20484;-71
2023/11/16 09:24:39;;;;;;;0.50;0.50;;;;;;;9.04;100.00;101325.25;10369753;28;20389;-71
2023/11/16 09:29:40;;;;;;;0.63;0.63;;;;;;;9.10;100.00;101332.66;10377697;28;20395;-71
2023/11/16 09:34:41;;;;;;;6.45;3.33;;;;;;;9.10;100.00;101319.16;10376250;28;20109;-71
2023/11/16 09:39:41;;;;;;;1.05;1.05;;;;;;;9.04;100.00;101303.66;10375601;28;20074;-71
2023/11/16 09:44:44;;;;;;;0.40;0.40;;;;;;;8.98;100.00;101316.00;10359603;28;20132;-71
2023/11/16 09:49:47;;;;;;;0.47;0.47;;;;;;;8.95;100.00;101308.25;10359631;28;20389;-71
2023/11/16 09:54:50;;;;;;;0.60;0.60;;;;;;;9.01;100.00;101315.66;10391572;28;20066;-71
2023/11/16 09:59:55;;;;;;;2.47;2.28;;;;;;;9.03;100.00;101318.16;10375173;28;20485;-71
2023/11/16 10:05:01;;;;;;;0.82;0.82;;;;;;;8.91;100.00;101303.38;10375160;28;20053;-71
2023/11/16 10:10:09;;;;;;;0.50;0.50;;;;;;;8.92;100.00;101305.91;10374740;28;20113;-70
2023/11/16 10:15:14;;;;;;;0.50;0.50;;;;;;;8.95;100.00;101294.75;10376922;28;20034;-71
2023/11/16 10:20:16;;;;;;;1.75;1.75;;;;;;;8.99;100.00;101290.66;10358320;28;20487;-71
2023/11/16 10:25:17;;;;;;;0.50;0.50;;;;;;;9.08;100.00;101283.34;10375786;28;20092;-70
2023/11/16 10:30:18;;;;;;;1.15;1.15;;;;;;;9.00;100.00;101281.56;10375391;28;20030;-71
2023/11/16 10:35:18;;;;;;;2.10;1.45;;;;;;;8.95;100.00;101267.72;10373724;28;20034;-71
2023/11/16 10:40:19;;;;;;;35.28;7.97;;;;;;;8.91;100.00;101260.19;10373616;28;20040;-71
2023/11/16 10:45:19;;;;;;;0.98;0.98;;;;;;;8.89;100.00;101256.81;10373905;28;20038;-71
2023/11/16 10:50:20;;;;;;;1.52;1.52;;;;;;;8.98;100.00;101251.16;10356345;28;20096;-70
2023/11/16 10:55:22;;;;;;;0.70;0.70;;;;;;;9.06;100.00;101239.47;10357773;28;20077;-70
2023/11/16 11:00:22;;;;;;;0.43;0.43;;;;;;;8.95;100.00;101229.91;10356432;28;20393;-70
2023/11/16 11:05:23;;;;;;;6.32;1.77;;;;;;;8.86;100.00;101220.19;10372198;28;20037;-70
2023/11/16 11:10:24;;;;;;;0.80;0.80;;;;;;;8.86;100.00;101209.38;10373103;28;20113;-70
2023/11/16 11:15:32;;;;;;;3.10;3.00;;;;;;;8.94;100.00;101195.84;10372781;28;20045;-70
2023/11/16 11:20:43;;;;;;;1.65;1.65;;;;;;;8.98;100.00;101175.53;10372703;28;20029;-70
2023/11/16 11:25:44;;;;;;;2.00;1.95;;;;;;;8.91;100.00;101181.84;10372695;28;20037;-70
2023/11/16 11:30:54;;;;;;;0.75;0.75;;;;;;;8.88;100.00;101163.31;10371627;28;20375;-70
2023/11/16 11:35:56;;;;;;;0.57;0.57;;;;;;;9.02;100.00;101154.41;10355407;28;20034;-70
2023/11/16 11:40:57;;;;;;;1.60;1.55;;;;;;;9.16;100.00;101155.50;10355336;28;20050;-71
2023/11/16 11:45:58;;;;;;;0.50;0.50;;;;;;;9.18;100.00;101146.16;10372632;28;20040;-70
2023/11/16 11:50:59;;;;;;;1.75;1.65;;;;;;;9.11;100.00;101137.09;10354737;28;20030;-70
2023/11/16 11:56:06;;;;;;;1.08;1.05;;;;;;;9.07;100.00;101122.28;10356084;28;20050;-70
2023/11/16 12:01:09;;;;;;;0.63;0.63;;;;;;;9.04;100.00;101114.56;10371035;28;20033;-70
2023/11/16 12:06:09;;;;;;;0.90;0.90;;;;;;;8.94;100.00;101120.22;10370144;28;20528;-70
2023/11/16 12:11:17;;;;;;;0.73;0.73;;;;;;;8.91;100.00;101108.94;10371529;28;20128;-70
2023/11/16 12:16:18;;;;;;;1.45;1.35;;;;;;;8.96;100.00;101101.94;10355799;28;20033;-70
2023/11/16 12:21:18;;;;;;;6.45;1.65;;;;;;;8.91;100.00;101104.38;10369321;28;20038;-71
2023/11/16 12:26:23;;;;;;;1.10;1.10;;;;;;;8.93;100.00;101096.91;10371747;28;20149;-70
2023/11/16 12:31:26;;;;;;;1.35;1.35;;;;;;;8.90;100.00;101083.75;10353823;28;20044;-70
2023/11/16 12:36:31;;;;;;;1.08;1.08;;;;;;;8.95;100.00;101084.06;10370769;28;20528;-70
2023/11/16 12:41:32;;;;;;;0.65;0.65;;;;;;;8.99;100.00;101084.53;10369415;28;20449;-70
2023/11/16 12:46:32;;;;;;;1.35;1.35;;;;;;;9.04;100.00;101074.88;10371337;28;20046;-70
2023/11/16 12:51:33;;;;;;;0.88;0.88;;;;;;;9.21;100.00;101063.91;10372236;28;20035;-70
2023/11/16 12:56:34;;;;;;;0.85;0.85;;;;;;;9.29;100.00;101055.72;10370609;28;20423;-70
2023/11/16 13:01:35;;;;;;;1.48;1.48;;;;;;;9.38;100.00;101060.00;10374307;28;20493;-70
2023/11/16 13:06:37;;;;;;;0.63;0.63;;;;;;;9.21;100.00;101053.91;10378825;28;20117;-70
2023/11/16 13:11:37;;;;;;;0.55;0.55;;;;;;;9.18;100.00;101051.59;10378276;28;20029;-70
2023/11/16 13:16:38;;;;;;;1.95;1.88;;;;;;;9.16;100.00;101044.72;10378656;28;20112;-70
2023/11/16 13:21:38;;;;;;;0.47;0.47;;;;;;;9.08;100.00;101056.44;10376688;28;20065;-70
2023/11/16 13:26:40;;;;;;;1.13;1.13;;;;;;;9.05;100.00;101056.78;10376998;28;20034;-70
2023/11/16 13:31:40;;;;;;;0.32;0.32;;;;;;;9.09;100.00;101047.28;10376151;28;20037;-70
2023/11/16 13:36:42;;;;;;;14.15;11.02;;;;;;;9.06;100.00;101056.63;10376519;28;20342;-70
2023/11/16 13:41:45;;;;;;;11.98;9.05;;;;;;;9.03;100.00;101058.81;10378438;28;20064;-71
2023/11/16 13:46:45;;;;;;;12.88;9.95;;;;;;;8.97;100.00;101067.69;10378156;28;20079;-70
2023/11/16 13:51:48;;;;;;;13.27;9.77;;;;;;;8.93;100.00;101066.34;10392789;28;20120;-71
2023/11/16 13:56:48;;;;;;;14.63;9.63;;;;;;;8.91;100.00;101069.25;10360580;28;20115;-70
2023/11/16 14:01:49;;;;;;;13.95;10.07;;;;;;;8.76;100.00;101081.88;10376784;28;20370;-70
2023/11/16 14:06:50;;;;;;;18.08;8.73;;;;;;;8.67;100.00;101074.84;10375600;28;20193;-70
2023/11/16 14:11:50;;;;;;;25.00;11.35;;;;;;;8.70;100.00;101088.81;10374119;28;20038;-70
2023/11/16 14:16:50;;;;;;;14.68;9.43;;;;;;;8.70;100.00;101086.13;10357310;28;20137;-72
2023/11/16 14:21:51;;;;;;;18.30;9.23;;;;;;;8.71;100.00;101095.06;10375428;28;20157;-70
2023/11/16 14:26:51;;;;;;;10.40;7.78;;;;;;;8.81;100.00;101092.97;10357013;28;20034;-70
2023/11/16 14:31:52;;;;;;;11.98;9.75;;;;;;;8.88;100.00;101096.63;10374161;28;20042;-70
2023/11/16 14:36:53;;;;;;;17.10;8.60;;;;;;;8.85;100.00;101095.13;10374056;28;20069;-71
2023/11/16 14:41:53;;;;;;;11.38;7.20;;;;;;;8.84;100.00;101103.41;10373710;28;20030;-70
2023/11/16 14:46:54;;;;;;;14.77;9.15;;;;;;;8.77;100.00;101099.75;10356924;28;20422;-70
2023/11/16 14:51:55;;;;;;;9.45;7.22;;;;;;;8.69;100.00;101103.34;10372861;28;20116;-70
2023/11/16 14:56:58;;;;;;;10.18;7.70;;;;;;;8.71;100.00;101103.16;10374380;28;20508;-70
2023/11/16 15:01:58;;;;;;;18.02;7.30;;;;;;;8.72;100.00;101110.25;10373017;28;20065;-70
2023/11/16 15:06:59;;;;;;;8.10;6.15;;;;;;;8.52;100.00;101116.13;10373090;28;20061;-70
2023/11/16 15:12:00;;;;;;;7.50;4.97;;;;;;;8.39;100.00;101115.84;10374077;28;20046;-70
2023/11/16 15:17:00;;;;;;;14.63;5.93;;;;;;;8.29;100.00;101115.22;10355304;28;20438;-70
2023/11/16 15:22:02;;;;;;;8.52;5.60;;;;;;;8.24;100.00;101123.84;10373136;28;20034;-70
2023/11/16 15:27:02;;;;;;;8.05;5.70;;;;;;;8.15;100.00;101120.34;10354867;28;20498;-70
2023/11/16 15:32:03;;;;;;;4.68;4.18;;;;;;;8.18;100.00;101129.13;10355535;28;20121;-71
2023/11/16 15:37:03;;;;;;;6.32;4.15;;;;;;;8.07;100.00;101127.63;10355345;28;20038;-70
2023/11/16 15:42:04;;;;;;;7.28;4.32;;;;;;;8.02;100.00;101136.25;10373754;28;20034;-70
2023/11/16 15:47:05;;;;;;;5.40;2.67;;;;;;;7.88;100.00;101142.38;10355298;28;20038;-70
2023/11/16 15:52:05;;;;;;;9.45;4.57;;;;;;;7.83;100.00;101147.44;10371604;28;20136;-70
2023/11/16 15:57:05;;;;;;;5.65;3.67;;;;;;;7.84;100.00;101141.88;10372035;28;20137;-71
2023/11/16 16:02:07;;;;;;;4.03;3.65;;;;;;;7.81;100.00;101138.69;10371882;28;20065;-70
2023/11/16 16:07:08;;;;;;;9.02;4.45;;;;;;;7.72;100.00;101148.66;10370476;28;20160;-70
2023/11/16 16:12:08;;;;;;;8.02;3.80;;;;;;;7.62;100.00;101151.53;10371748;28;20193;-70
2023/11/16 16:17:09;;;;;;;4.50;2.53;;;;;;;7.61;100.00;101165.19;10369672;28;20040;-70
2023/11/16 16:22:09;;;;;;;5.45;3.45;;;;;;;7.61;100.00;101166.03;10370211;28;20038;-70
2023/11/16 16:27:10;;;;;;;8.18;4.35;;;;;;;7.52;100.00;101177.84;10371652;28;20129;-70
2023/11/16 16:32:12;;;;;;;5.80;4.25;;;;;;;7.51;100.00;101184.25;10353278;28;20144;-70
2023/11/16 16:37:13;;;;;;;17.63;5.03;;;;;;;7.50;100.00;101195.19;10368793;28;20101;-70
2023/11/16 16:42:13;;;;;;;3.63;3.33;;;;;;;7.48;100.00;101198.06;10370372;28;20038;-70
2023/11/16 16:47:14;;;;;;;5.00;3.72;;;;;;;7.42;100.00;101188.78;10370520;28;20509;-70
2023/11/16 16:52:16;;;;;;;14.70;5.25;;;;;;;7.41;100.00;101197.06;10368562;28;20034;-70
2023/11/16 16:57:17;;;;;;;4.28;2.85;;;;;;;7.40;100.00;101211.53;10352287;28;20058;-70
2023/11/16 17:02:17;;;;;;;6.88;4.28;;;;;;;7.34;100.00;101209.50;10368856;28;20445;-70
2023/11/16 17:07:18;;;;;;;11.30;4.93;;;;;;;7.32;100.00;101215.06;10370285;28;20034;-70
2023/11/16 17:12:20;;;;;;;8.43;4.10;;;;;;;7.28;100.00;101216.44;10368815;28;20523;-70
2023/11/16 17:17:20;;;;;;;4.70;3.38;;;;;;;7.25;100.00;101229.41;10368621;28;20034;-70
2023/11/16 17:22:21;;;;;;;4.47;2.85;;;;;;;7.23;100.00;101241.16;10368808;28;20389;-70
2023/11/16 17:27:22;;;;;;;6.20;3.38;;;;;;;7.19;100.00;101239.81;10371015;28;20149;-70
2023/11/16 17:32:22;;;;;;;3.70;3.30;;;;;;;7.14;100.00;101238.63;10369139;28;20492;-70
2023/11/16 17:37:22;;;;;;;5.55;3.58;;;;;;;7.12;100.00;101246.88;10369669;28;20066;-70
2023/11/16 17:42:23;;;;;;;3.95;3.42;;;;;;;7.10;100.00;101242.69;10335074;28;20462;-70
2023/11/16 17:47:24;;;;;;;8.73;3.75;;;;;;;7.06;100.00;101252.94;10371121;28;20128;-70
2023/11/16 17:52:24;;;;;;;7.03;4.03;;;;;;;7.01;100.00;101252.59;10379583;28;20136;-70
2023/11/16 17:57:25;;;;;;;6.50;4.00;;;;;;;6.99;100.00;101255.47;10382005;28;20053;-70
2023/11/16 18:02:25;;;;;;;13.32;3.15;;;;;;;6.96;100.00;101266.56;10359555;28;20552;-70
2023/11/16 18:07:26;;;;;;;6.78;2.97;;;;;;;6.96;100.00;101281.88;10376833;28;20038;-70
2023/11/16 18:12:27;;;;;;;8.32;3.13;;;;;;;6.93;100.00;101276.81;10358548;28;20038;-70
2023/11/16 18:17:27;;;;;;;6.60;3.25;;;;;;;6.89;100.00;101284.38;10358484;28;20038;-70
2023/11/16 18:22:28;;;;;;;12.55;3.40;;;;;;;6.83;100.00;101279.66;10373761;28;20397;-70
2023/11/16 18:27:28;;;;;;;3.40;3.10;;;;;;;6.78;100.00;101295.44;10375418;28;20061;-70
2023/11/16 18:32:29;;;;;;;8.20;3.55;;;;;;;6.77;100.00;101303.69;10356963;28;20480;-70
2023/11/16 18:37:29;;;;;;;5.30;3.47;;;;;;;6.70;100.00;101311.53;10356020;28;20203;-70
2023/11/16 18:42:30;;;;;;;8.57;4.40;;;;;;;6.67;100.00;101311.88;10374879;28;20085;-70
2023/11/16 18:47:30;;;;;;;8.93;4.25;;;;;;;6.62;100.00;101319.59;10373078;28;20149;-70
2023/11/16 18:52:30;;;;;;;7.30;4.70;;;;;;;6.60;100.00;101338.56;10374908;28;20466;-70
2023/11/16 18:57:37;;;;;;;6.80;4.53;;;;;;;6.59;100.00;101336.06;10373451;28;20046;-70
2023/11/16 19:02:38;;;;;;;6.40;4.47;;;;;;;6.54;100.00;101347.31;10372961;28;20045;-70
2023/11/16 19:07:38;;;;;;;4.63;3.63;;;;;;;6.54;100.00;101360.78;10372064;28;20140;-70
2023/11/16 19:12:41;;;;;;;9.75;5.35;;;;;;;6.52;100.00;101362.75;10373510;28;20421;-70
2023/11/16 19:17:41;;;;;;;11.77;2.97;;;;;;;6.48;100.00;101364.94;10373075;28;20469;-70
2023/11/16 19:22:42;;;;;;;5.53;4.50;;;;;;;6.45;100.00;101372.47;10372681;28;20038;-70
2023/11/16 19:27:42;;;;;;;7.28;3.92;;;;;;;6.42;100.00;101367.41;10371436;28;20084;-70
2023/11/16 19:32:47;;;;;;;4.18;3.63;;;;;;;6.34;100.00;101370.88;10372620;28;20129;-70
2023/11/16 19:37:50;;;;;;;8.52;4.43;;;;;;;6.31;100.00;101375.75;10339537;28;20041;-70
2023/11/16 19:42:51;;;;;;;5.75;3.20;;;;;;;6.27;100.00;101372.53;10372400;28;20037;-70
2023/11/16 19:47:51;;;;;;;4.60;3.58;;;;;;;6.23;100.00;101366.63;10354228;28;20133;-71
2023/11/16 19:52:52;;;;;;;7.50;4.03;;;;;;;6.23;100.00;101368.47;10354078;28;20086;-71
2023/11/16 19:57:53;;;;;;;6.45;4.28;;;;;;;6.22;100.00;101374.84;10369731;28;20092;-71
2023/11/16 20:02:53;;;;;;;4.43;3.30;;;;;;;6.17;100.00;101382.53;10370436;28;20038;-70
2023/11/16 20:07:54;;;;;;;8.77;3.20;;;;;;;6.14;100.00;101394.44;10371303;28;20041;-71
2023/11/16 20:12:54;;;;;;;6.97;4.18;;;;;;;6.12;100.00;101392.91;10369383;28;20076;-70
2023/11/16 20:17:55;;;;;;;8.00;3.80;;;;;;;6.09;100.00;101402.13;10386448;28;20038;-71
2023/11/16 20:22:55;;;;;;;7.25;3.92;;;;;;;6.05;100.00;101403.44;10370121;28;20073;-70
2023/11/16 20:27:56;;;;;;;7.43;4.53;;;;;;;6.02;100.00;101409.13;10354535;28;20072;-71
2023/11/16 20:32:59;;;;;;;9.02;4.22;;;;;;;6.00;100.00;101425.44;10369735;28;20474;-71
2023/11/16 20:38:00;;;;;;;6.13;4.47;;;;;;;5.94;100.00;101430.59;10370841;28;20072;-70
2023/11/16 20:43:01;;;;;;;12.20;5.95;;;;;;;5.94;100.00;101434.13;10370178;28;20045;-70
2023/11/16 20:48:03;;;;;;;12.55;6.18;;;;;;;5.94;100.00;101439.50;10370419;28;20030;-71
2023/11/16 20:53:05;;;;;;;15.32;7.03;;;;;;;5.92;100.00;101451.38;10370148;28;20038;-71
2023/11/16 20:58:05;;;;;;;17.92;10.05;;;;;;;5.90;100.00;101462.25;10370487;28;20054;-70
2023/11/16 21:03:06;;;;;;;14.50;8.18;;;;;;;5.88;100.00;101463.44;10355034;28;20397;-70
2023/11/16 21:08:07;;;;;;;15.50;8.15;;;;;;;5.83;100.00;101456.66;10337791;28;20034;-70
2023/11/16 21:13:08;;;;;;;17.42;8.30;;;;;;;5.81;100.00;101465.88;10369758;28;20030;-70
2023/11/16 21:18:08;;;;;;;11.02;6.78;;;;;;;5.73;100.00;101472.00;10368964;28;20032;-71
2023/11/16 21:23:09;;;;;;;13.40;7.55;;;;;;;5.70;100.00;101469.63;10374497;28;20473;-71
2023/11/16 21:28:09;;;;;;;16.25;7.57;;;;;;;5.68;100.00;101473.44;10377149;28;20177;-71
2023/11/16 21:33:10;;;;;;;19.95;7.47;;;;;;;5.64;100.00;101475.59;10376701;28;20116;-71
2023/11/16 21:38:10;;;;;;;12.23;7.20;;;;;;;5.62;100.00;101487.50;10375638;28;20065;-71
2023/11/16 21:43:12;;;;;;;18.02;8.27;;;;;;;5.58;100.00;101485.13;10393515;28;20049;-71
2023/11/16 21:48:12;;;;;;;14.23;8.02;;;;;;;5.58;100.00;101487.81;10375982;28;20482;-71
2023/11/16 21:53:12;;;;;;;9.40;7.10;;;;;;;5.53;100.00;101491.94;10393122;28;20034;-71
2023/11/16 21:58:13;;;;;;;15.52;9.45;;;;;;;5.52;100.00;101496.47;10359396;28;20145;-70
2023/11/16 22:03:13;;;;;;;17.20;8.75;;;;;;;5.52;100.00;101509.03;10377608;28;20125;-70
2023/11/16 22:08:14;;;;;;;35.90;8.57;;;;;;;5.49;100.00;101509.34;10375440;28;20438;-70
2023/11/16 22:13:15;;;;;;;11.50;9.05;;;;;;;5.43;100.00;101526.06;10359541;28;20041;-70
2023/11/16 22:18:15;;;;;;;13.68;11.02;;;;;;;5.41;100.00;101536.09;10376338;28;20034;-70
2023/11/16 22:23:15;;;;;;;16.42;10.00;;;;;;;5.43;100.00;101542.19;10374496;28;20107;-70
2023/11/16 22:28:18;;;;;;;16.67;10.35;;;;;;;5.45;100.00;101540.19;10391301;28;20405;-69
2023/11/16 22:33:18;;;;;;;15.95;12.98;;;;;;;5.42;100.00;101545.84;10374610;28;20049;-70
2023/11/16 22:38:19;;;;;;;19.88;13.20;;;;;;;5.40;100.00;101551.38;10374174;28;20439;-70
2023/11/16 22:43:19;;;;;;;21.02;14.15;;;;;;;5.40;100.00;101564.81;10390522;28;20500;-70
2023/11/16 22:48:20;;;;;;;28.48;15.05;;;;;;;5.46;100.00;101574.13;10375468;28;20131;-70
2023/11/16 22:53:20;;;;;;;21.38;11.88;;;;;;;5.48;100.00;101574.81;10374911;28;20042;-70
2023/11/16 22:58:21;;;;;;;20.15;10.85;;;;;;;5.42;100.00;101572.69;10374388;28;20054;-70
2023/11/16 23:03:23;;;;;;;23.63;12.13;;;;;;;5.38;100.00;101587.44;10375568;28;20362;-70